createdAt,value
2022-12-05T00:02:15.977Z,38.60
2022-12-05T00:04:55.847Z,42.60
2022-12-05T00:07:25.732Z,39.10
2022-12-05T00:09:58.999Z,40.00
2022-12-05T00:12:29.564Z,36.30
2022-12-05T00:14:59.133Z,36.50
2022-12-05T00:17:40.566Z,36.60
2022-12-05T00:20:10.890Z,37.60
2022-12-05T00:22:43.716Z,38.00
2022-12-05T00:25:31.971Z,33.40
2022-12-05T00:28:04.928Z,33.90
2022-12-05T00:30:37.624Z,33.00
2022-12-05T00:33:14.391Z,40.50
2022-12-05T00:35:49.319Z,37.70
2022-12-05T00:42:33.223Z,36.00
2022-12-05T00:45:23.883Z,35.10
2022-12-05T00:47:58.999Z,33.90
2022-12-05T00:50:38.560Z,39.10
2022-12-05T00:53:08.549Z,44.30
2022-12-05T00:55:38.585Z,36.90
2022-12-05T00:58:08.507Z,34.50
2022-12-05T01:00:38.378Z,36.80
2022-12-05T01:03:09.043Z,41.50
2022-12-05T01:05:37.779Z,41.10
2022-12-05T01:08:08.778Z,41.30
2022-12-05T01:10:38.222Z,36.30
2022-12-05T01:13:08.397Z,37.10
2022-12-05T01:15:38.482Z,43.00
2022-12-05T01:18:10.502Z,39.20
2022-12-05T01:20:45.007Z,39.60
2022-12-05T01:23:15.877Z,39.10
2022-12-05T01:25:47.356Z,38.80
2022-12-05T01:28:20.117Z,40.00
2022-12-05T01:30:51.023Z,36.20
2022-12-05T01:33:21.236Z,39.50
2022-12-05T01:35:54.808Z,40.50
2022-12-05T01:38:26.796Z,43.10
2022-12-05T01:41:04.923Z,42.90
2022-12-05T01:43:38.840Z,42.20
2022-12-05T01:46:09.465Z,39.50
2022-12-05T01:48:40.028Z,36.90
2022-12-05T01:53:42.999Z,40.60
2022-12-05T01:56:13.915Z,41.70
2022-12-05T01:58:46.713Z,37.40
2022-12-05T02:01:20.989Z,37.40
2022-12-05T02:03:57.311Z,40.60
2022-12-05T02:06:33.589Z,38.20
2022-12-05T02:09:05.618Z,39.60
2022-12-05T02:11:44.024Z,35.10
2022-12-05T02:14:34.071Z,40.80
2022-12-05T02:17:37.546Z,33.60
2022-12-05T02:20:36.705Z,35.50
2022-12-05T02:23:54.354Z,33.60
2022-12-05T02:26:54.612Z,33.20
2022-12-05T02:30:01.836Z,35.20
2022-12-05T02:33:04.956Z,35.90
2022-12-05T02:36:30.967Z,32.50
2022-12-05T02:39:27.412Z,31.50
2022-12-05T02:42:27.155Z,29.80
2022-12-05T02:45:15.145Z,34.10
2022-12-05T02:47:56.330Z,35.50
2022-12-05T02:50:40.216Z,34.40
2022-12-05T02:53:19.565Z,34.10
2022-12-05T02:55:53.812Z,30.90
2022-12-05T02:58:36.737Z,32.40
2022-12-05T03:01:10.853Z,33.40
2022-12-05T03:03:45.756Z,31.20
2022-12-05T03:13:15.896Z,30.40
2022-12-05T03:15:55.721Z,27.20
2022-12-05T03:18:38.555Z,31.50
2022-12-05T03:21:35.219Z,32.90
2022-12-05T03:24:17.251Z,29.10
2022-12-05T03:27:12.208Z,30.70
2022-12-05T03:30:04.855Z,30.50
2022-12-05T03:33:13.284Z,28.60
2022-12-05T03:35:49.521Z,33.50
2022-12-05T03:38:53.412Z,29.60
2022-12-05T03:41:42.475Z,30.60
2022-12-05T03:44:42.482Z,31.70
2022-12-05T03:47:23.498Z,26.80
2022-12-05T03:50:04.951Z,31.60
2022-12-05T03:53:18.471Z,32.20
2022-12-05T03:55:59.126Z,28.50
2022-12-05T03:58:52.839Z,26.80
2022-12-05T04:01:34.765Z,29.50
2022-12-05T04:04:25.611Z,31.80
2022-12-05T04:06:58.754Z,28.20
2022-12-05T04:09:56.640Z,29.40
2022-12-05T04:12:29.863Z,26.50
2022-12-05T04:15:20.145Z,28.50
2022-12-05T04:17:59.025Z,32.50
2022-12-05T04:20:50.444Z,32.70
2022-12-05T04:23:21.641Z,34.70
2022-12-05T04:26:04.886Z,30.00
2022-12-05T04:28:37.626Z,29.00
2022-12-05T04:31:15.427Z,29.90
2022-12-05T04:34:01.391Z,29.40
2022-12-05T04:36:40.832Z,29.00
2022-12-05T04:39:26.563Z,30.50
2022-12-05T04:42:02.459Z,28.10
2022-12-05T04:44:37.152Z,28.20
2022-12-05T04:47:11.388Z,28.70
2022-12-05T04:49:54.552Z,31.10
2022-12-05T04:52:24.198Z,29.20
2022-12-05T04:55:02.244Z,28.40
2022-12-05T04:57:41.167Z,25.00
2022-12-05T05:00:11.339Z,25.30
2022-12-05T05:02:48.714Z,27.90
2022-12-05T05:05:20.159Z,28.20
2022-12-05T05:07:54.964Z,27.90
2022-12-05T05:10:45.769Z,32.40
2022-12-05T05:13:17.769Z,27.80
2022-12-05T05:15:47.871Z,27.70
2022-12-05T05:18:17.101Z,31.80
2022-12-05T05:20:45.956Z,27.80
2022-12-05T05:23:15.212Z,28.00
2022-12-05T05:25:44.733Z,30.20
2022-12-05T05:28:13.495Z,27.30
2022-12-05T05:30:44.621Z,24.90
2022-12-05T05:33:16.781Z,24.50
2022-12-05T05:35:46.256Z,28.80
2022-12-05T05:38:18.020Z,28.20
2022-12-05T05:40:48.361Z,27.60
2022-12-05T05:43:20.956Z,26.10
2022-12-05T05:48:23.208Z,27.50
2022-12-05T05:51:00.398Z,27.10
2022-12-05T05:53:38.834Z,27.20
2022-12-05T05:56:32.955Z,28.90
2022-12-05T05:59:05.836Z,33.60
2022-12-05T06:01:37.808Z,29.60
2022-12-05T06:04:08.581Z,27.20
2022-12-05T06:06:37.622Z,28.50
2022-12-05T06:09:10.800Z,27.30
2022-12-05T06:11:43.337Z,29.30
2022-12-05T06:14:24.999Z,31.90
2022-12-05T06:17:28.599Z,31.30
2022-12-05T06:20:36.306Z,31.80
2022-12-05T06:23:42.750Z,26.60
2022-12-05T06:26:52.014Z,27.70
2022-12-05T06:29:52.574Z,25.30
2022-12-05T06:32:48.477Z,30.60
2022-12-05T06:35:32.906Z,33.20
2022-12-05T06:38:13.212Z,29.40
2022-12-05T06:41:00.226Z,27.90
2022-12-05T06:43:40.324Z,27.00
2022-12-05T06:46:19.726Z,29.20
2022-12-05T06:49:03.814Z,28.20
2022-12-05T06:51:44.000Z,31.10
2022-12-05T06:54:25.347Z,30.70
2022-12-05T06:57:03.612Z,30.10
2022-12-05T06:59:43.260Z,31.10
2022-12-05T07:05:07.421Z,28.90
2022-12-05T07:07:54.995Z,35.00
2022-12-05T07:10:38.927Z,28.60
2022-12-05T07:13:24.075Z,35.30
2022-12-05T07:16:04.567Z,34.40
2022-12-05T07:18:42.661Z,29.70
2022-12-05T07:21:22.711Z,31.30
2022-12-05T07:24:07.941Z,31.70
2022-12-05T07:26:46.138Z,32.20
2022-12-05T07:29:25.631Z,31.70
2022-12-05T07:32:01.302Z,34.70
2022-12-05T07:34:47.768Z,32.90
2022-12-05T07:38:29.573Z,32.60
2022-12-05T07:41:39.879Z,30.60
2022-12-05T07:44:54.612Z,32.60
2022-12-05T07:48:13.236Z,34.30
2022-12-05T07:51:19.201Z,30.90
2022-12-05T07:54:19.431Z,38.40
2022-12-05T07:57:19.319Z,30.00
2022-12-05T08:00:21.617Z,30.60
2022-12-05T08:03:24.705Z,33.40
2022-12-05T08:06:27.922Z,35.90
2022-12-05T08:09:31.112Z,33.10
2022-12-05T08:12:31.708Z,37.10
2022-12-05T08:15:34.127Z,31.80
2022-12-05T08:18:27.795Z,30.50
2022-12-05T08:21:27.785Z,32.00
2022-12-05T08:24:28.538Z,40.20
2022-12-05T08:27:28.425Z,49.00
2022-12-05T08:30:29.207Z,32.00
2022-12-05T08:34:11.402Z,43.20
2022-12-05T08:38:23.790Z,30.70
2022-12-05T08:47:03.538Z,32.30
2022-12-05T08:49:21.796Z,33.40
2022-12-05T09:00:09.186Z,33.20
2022-12-05T09:14:43.090Z,33.60
2022-12-05T09:22:46.468Z,35.70
2022-12-05T09:28:17.920Z,36.40
2022-12-05T09:31:16.390Z,37.50
2022-12-05T09:34:26.754Z,31.40
2022-12-05T09:37:39.333Z,38.10
2022-12-05T09:45:11.684Z,36.00
2022-12-05T09:48:15.083Z,49.40
2022-12-05T09:50:51.728Z,38.50
2022-12-05T09:56:34.673Z,53.70
2022-12-05T09:59:35.641Z,41.10
2022-12-05T10:07:14.505Z,40.90
2022-12-05T10:11:06.589Z,54.40
2022-12-05T10:23:58.971Z,38.40
2022-12-05T10:26:43.261Z,43.80
2022-12-05T10:30:00.241Z,39.90
2022-12-05T10:32:59.654Z,41.30
2022-12-05T10:39:42.525Z,40.50
2022-12-05T10:42:47.803Z,44.80
2022-12-05T10:45:46.519Z,34.50
2022-12-05T10:48:38.431Z,40.20
2022-12-05T10:51:45.210Z,42.40
2022-12-05T10:54:52.873Z,42.70
2022-12-05T10:57:47.537Z,47.90
2022-12-05T11:01:01.462Z,40.40
2022-12-05T11:13:09.120Z,43.60
2022-12-05T11:16:48.888Z,49.70
2022-12-05T11:20:16.257Z,46.00
2022-12-05T11:23:39.645Z,40.00
2022-12-05T11:26:59.077Z,37.70
2022-12-05T11:30:11.365Z,48.60
2022-12-05T11:33:30.665Z,48.20
2022-12-05T11:36:49.981Z,48.80
2022-12-05T11:39:55.532Z,50.90
2022-12-05T11:43:17.413Z,42.80
2022-12-05T11:46:14.880Z,45.90
2022-12-05T11:49:00.952Z,45.00
2022-12-05T11:52:13.130Z,45.80
2022-12-05T11:55:07.098Z,44.70
2022-12-05T11:58:04.204Z,58.00
2022-12-05T12:00:55.424Z,47.70
2022-12-05T12:03:55.352Z,47.20
2022-12-05T12:07:17.933Z,48.00
2022-12-05T12:09:53.607Z,46.60
2022-12-05T12:12:58.783Z,47.20
2022-12-05T12:16:02.706Z,51.70
2022-12-05T12:19:42.940Z,52.00
2022-12-05T12:23:18.131Z,46.80
2022-12-05T12:26:13.025Z,52.30
2022-12-05T12:29:14.665Z,47.50
2022-12-05T12:32:16.308Z,49.00
2022-12-05T12:39:25.268Z,44.30
2022-12-05T12:43:00.018Z,52.10
2022-12-05T12:46:19.771Z,49.60
2022-12-05T12:49:53.784Z,56.80
2022-12-05T12:55:02.904Z,50.00
2022-12-05T12:57:25.663Z,49.90
2022-12-05T13:00:53.294Z,52.90
2022-12-05T13:09:51.393Z,53.10
2022-12-05T13:46:44.409Z,50.70
2022-12-05T13:54:05.533Z,59.90
2022-12-05T13:57:24.425Z,51.80
2022-12-05T14:15:27.957Z,57.00
2022-12-05T14:22:23.639Z,49.80
2022-12-05T14:28:09.509Z,53.60
2022-12-05T14:30:13.199Z,54.60
2022-12-05T14:34:44.403Z,53.90
2022-12-05T14:41:11.114Z,52.30
2022-12-05T14:44:56.951Z,55.60
2022-12-05T14:51:55.903Z,51.40
2022-12-05T14:55:45.437Z,50.30
2022-12-05T14:59:08.929Z,52.70
2022-12-05T15:13:24.478Z,56.30
2022-12-05T15:22:35.303Z,52.10
2022-12-05T15:24:18.162Z,54.50
2022-12-05T15:27:29.195Z,53.50
2022-12-05T15:34:50.816Z,57.40
2022-12-05T15:37:59.319Z,54.90
2022-12-05T15:40:41.507Z,56.50
2022-12-05T15:43:27.794Z,57.50
2022-12-05T15:46:15.654Z,54.10
2022-12-05T15:48:46.208Z,52.10
2022-12-05T15:51:25.345Z,54.60
2022-12-05T15:54:35.733Z,47.80
2022-12-05T15:57:23.514Z,57.10
2022-12-05T16:00:28.519Z,55.40
2022-12-05T16:20:36.987Z,63.20
2022-12-05T17:07:47.454Z,61.90
2022-12-05T17:18:44.063Z,63.20
2022-12-05T17:22:01.666Z,58.00
2022-12-05T18:06:34.333Z,55.40
2022-12-05T18:07:26.665Z,60.70
2022-12-05T18:09:16.813Z,55.10
2022-12-05T18:11:48.202Z,60.60
2022-12-05T18:14:38.834Z,62.70
2022-12-05T18:26:14.639Z,60.00
2022-12-05T18:28:59.965Z,54.30
2022-12-05T18:32:03.992Z,57.20
2022-12-05T18:34:41.032Z,57.10
2022-12-05T18:37:23.019Z,58.60
2022-12-05T18:42:40.048Z,55.10
2022-12-05T18:45:12.928Z,57.30
2022-12-05T18:47:43.806Z,52.40
2022-12-05T18:50:15.336Z,53.40
2022-12-05T18:52:44.460Z,53.40
2022-12-05T18:55:20.818Z,57.20
2022-12-05T18:58:02.941Z,56.20
2022-12-05T19:00:38.800Z,60.10
2022-12-05T19:03:21.696Z,60.50
2022-12-05T19:06:12.653Z,58.80
2022-12-05T19:08:57.728Z,54.50
2022-12-05T19:11:47.575Z,52.60
2022-12-05T19:14:20.690Z,58.30
2022-12-05T19:17:03.123Z,58.60
2022-12-05T19:20:10.194Z,57.40
2022-12-05T19:22:49.567Z,62.60
2022-12-05T19:25:26.153Z,57.20
2022-12-05T19:28:03.470Z,57.10
2022-12-05T19:30:40.246Z,54.50
2022-12-05T19:33:23.793Z,62.30
2022-12-05T19:36:24.221Z,56.00
2022-12-05T19:39:05.570Z,64.00
2022-12-05T19:41:50.077Z,56.70
2022-12-05T19:44:26.579Z,62.10
2022-12-05T19:47:06.200Z,58.20
2022-12-05T19:49:49.870Z,57.70
2022-12-05T19:52:28.387Z,56.40
2022-12-05T19:55:03.826Z,63.10
2022-12-05T19:57:44.889Z,59.00
2022-12-05T20:00:22.255Z,67.70
2022-12-05T20:02:57.652Z,63.40
2022-12-05T20:05:33.144Z,56.40
2022-12-05T20:08:17.899Z,59.50
2022-12-05T20:10:57.413Z,57.20
2022-12-05T20:16:32.568Z,67.50
2022-12-05T20:19:21.284Z,71.60
2022-12-05T20:22:35.001Z,57.70
2022-12-05T20:25:35.135Z,64.80
2022-12-05T20:28:48.148Z,63.60
2022-12-05T20:31:55.220Z,65.10
2022-12-05T20:35:01.077Z,63.00
2022-12-05T20:38:07.149Z,63.90
2022-12-05T20:41:15.802Z,68.40
2022-12-05T20:43:59.271Z,60.80
2022-12-05T20:46:39.367Z,65.30
2022-12-05T20:49:44.593Z,72.50
2022-12-05T20:53:00.382Z,64.10
2022-12-05T20:56:25.829Z,59.20
2022-12-05T20:59:30.313Z,67.50
2022-12-05T21:02:04.866Z,65.10
2022-12-05T21:04:41.287Z,71.90
2022-12-05T21:07:12.249Z,71.90
2022-12-05T21:09:43.648Z,66.40
2022-12-05T21:12:14.790Z,63.50
2022-12-05T21:14:50.197Z,70.30
2022-12-05T21:17:51.697Z,70.70
2022-12-05T21:20:35.351Z,69.80
2022-12-05T21:23:38.817Z,73.80
2022-12-05T21:26:43.269Z,61.90
2022-12-05T21:45:29.506Z,70.10
2022-12-05T21:48:43.536Z,67.50
2022-12-05T21:51:41.632Z,69.70
2022-12-05T21:54:19.942Z,72.30
2022-12-05T21:57:48.489Z,66.90
2022-12-05T22:00:32.964Z,70.60
2022-12-05T22:09:20.520Z,71.90
2022-12-05T22:12:04.395Z,74.30
2022-12-05T22:16:07.006Z,56.90
2022-12-05T22:22:06.711Z,63.90
2022-12-05T22:31:37.413Z,65.10
2022-12-05T22:34:43.230Z,64.40
2022-12-05T22:37:22.124Z,69.50
2022-12-05T22:39:52.965Z,69.10
2022-12-05T22:42:22.193Z,68.70
2022-12-05T22:44:57.778Z,62.80
2022-12-05T22:47:29.433Z,62.50
2022-12-05T22:49:58.629Z,62.60
2022-12-05T22:52:27.626Z,62.10
2022-12-05T22:54:58.052Z,69.30
2022-12-05T22:57:28.204Z,65.80
2022-12-05T22:59:58.502Z,69.70
2022-12-05T23:02:48.786Z,66.70
2022-12-05T23:05:21.191Z,66.70
2022-12-05T23:07:54.092Z,64.30
2022-12-05T23:10:24.480Z,68.10
2022-12-05T23:12:56.056Z,66.40
2022-12-05T23:15:28.887Z,61.60
2022-12-05T23:17:58.441Z,69.60
2022-12-05T23:20:29.622Z,71.30
2022-12-05T23:23:03.084Z,63.20
2022-12-05T23:25:33.902Z,65.50
2022-12-05T23:28:03.774Z,65.20
2022-12-05T23:30:33.348Z,66.50
2022-12-05T23:33:02.098Z,68.20
2022-12-05T23:35:32.398Z,68.00
2022-12-05T23:38:04.222Z,69.80
2022-12-05T23:40:38.346Z,69.00
2022-12-05T23:43:15.137Z,63.00
2022-12-05T23:45:51.152Z,65.50
2022-12-05T23:48:26.852Z,68.60
2022-12-05T23:51:04.765Z,67.70
2022-12-05T23:53:38.889Z,66.20
2022-12-05T23:56:09.136Z,66.70
2022-12-05T23:58:38.257Z,67.80
